createdAt,value
2023-02-03T00:00:06.944Z,7.53
2023-02-03T00:07:12.761Z,7.46
2023-02-03T00:14:14.308Z,7.57
2023-02-03T00:21:16.273Z,7.53
2023-02-03T00:28:18.006Z,7.47
2023-02-03T00:35:19.610Z,7.40
2023-02-03T00:42:21.211Z,7.46
2023-02-03T00:49:22.911Z,7.68
2023-02-03T00:56:24.667Z,7.53
2023-02-03T01:03:26.221Z,7.72
2023-02-03T01:10:28.581Z,7.70
2023-02-03T01:17:30.318Z,7.69
2023-02-03T01:24:31.886Z,7.47
2023-02-03T01:31:35.290Z,7.56
2023-02-03T01:38:37.232Z,7.55
2023-02-03T01:45:38.835Z,7.54
2023-02-03T01:52:44.245Z,7.64
2023-02-03T01:59:45.886Z,7.32
2023-02-03T02:06:48.754Z,7.42
2023-02-03T02:13:51.552Z,7.41
2023-02-03T02:21:14.674Z,7.34
2023-02-03T02:28:53.589Z,7.07
2023-02-03T02:36:15.156Z,7.02
2023-02-03T02:43:22.740Z,7.11
2023-02-03T02:50:25.743Z,7.31
2023-02-03T02:57:28.021Z,7.07
2023-02-03T03:04:31.287Z,6.94
2023-02-03T03:11:37.563Z,7.06
2023-02-03T03:18:44.266Z,7.14
2023-02-03T03:25:55.290Z,7.09
2023-02-03T03:32:58.464Z,7.05
2023-02-03T03:40:01.237Z,6.85
2023-02-03T03:47:14.562Z,6.89
2023-02-03T03:54:17.630Z,7.20
2023-02-03T04:01:19.231Z,7.02
2023-02-03T04:08:20.928Z,7.11
2023-02-03T04:15:22.432Z,7.26
2023-02-03T04:22:23.973Z,7.40
2023-02-03T04:29:25.490Z,7.41
2023-02-03T04:36:27.068Z,7.63
2023-02-03T04:43:28.608Z,7.87
2023-02-03T04:50:30.931Z,7.81
2023-02-03T04:57:32.492Z,7.87
2023-02-03T05:04:34.119Z,8.11
2023-02-03T05:11:35.644Z,8.07
2023-02-03T05:18:37.163Z,8.26
2023-02-03T05:25:38.694Z,8.27
2023-02-03T05:32:40.292Z,8.55
2023-02-03T05:39:41.881Z,8.52
2023-02-03T05:46:43.431Z,8.74
2023-02-03T05:53:45.061Z,9.18
2023-02-03T06:00:47.119Z,9.25
2023-02-03T06:07:49.438Z,9.30
2023-02-03T06:15:02.450Z,9.64
2023-02-03T06:22:04.007Z,9.84
2023-02-03T06:29:05.527Z,9.88
2023-02-03T06:36:07.252Z,9.92
2023-02-03T06:43:08.836Z,9.72
2023-02-03T06:50:11.655Z,10.10
2023-02-03T06:57:13.174Z,10.18
2023-02-03T07:04:14.735Z,10.31
2023-02-03T07:11:16.303Z,10.39
2023-02-03T07:18:43.480Z,10.35
2023-02-03T07:25:40.623Z,10.51
2023-02-03T07:32:42.170Z,10.34
2023-02-03T07:39:44.051Z,10.55
2023-02-03T07:46:45.707Z,10.64
2023-02-03T07:53:47.315Z,10.45
2023-02-03T08:00:48.817Z,10.75
2023-02-03T08:07:50.410Z,10.63
2023-02-03T08:14:52.073Z,10.92
2023-02-03T08:21:53.573Z,10.89
2023-02-03T08:28:55.100Z,10.72
2023-02-03T08:35:56.943Z,10.59
2023-02-03T08:42:58.557Z,10.78
2023-02-03T08:50:00.169Z,10.70
2023-02-03T08:57:01.697Z,10.76
2023-02-03T09:04:04.200Z,10.83
2023-02-03T09:11:10.231Z,10.89
2023-02-03T09:18:11.757Z,10.98
2023-02-03T09:25:13.848Z,10.77
2023-02-03T09:32:15.879Z,10.76
2023-02-03T09:39:17.538Z,10.97
2023-02-03T09:46:19.976Z,10.89
2023-02-03T09:53:30.827Z,11.18
2023-02-03T10:00:52.572Z,11.19
2023-02-03T10:08:01.765Z,11.16
2023-02-03T10:15:09.248Z,11.21
2023-02-03T10:22:13.965Z,11.28
2023-02-03T10:29:42.541Z,11.28
2023-02-03T10:36:56.388Z,11.31
2023-02-03T10:43:58.024Z,11.19
2023-02-03T10:50:59.640Z,10.26
2023-02-03T10:58:06.504Z,10.34
2023-02-03T11:05:18.894Z,10.54
2023-02-03T11:12:20.395Z,10.84
2023-02-03T11:19:22.101Z,10.94
2023-02-03T11:26:35.216Z,11.16
2023-02-03T11:33:36.767Z,11.03
2023-02-03T11:40:40.111Z,11.21
2023-02-03T11:47:49.401Z,11.22
2023-02-03T11:55:00.235Z,11.26
2023-02-03T12:02:36.493Z,11.31
2023-02-03T12:10:01.042Z,11.46
2023-02-03T12:17:31.479Z,11.57
2023-02-03T12:25:00.738Z,11.71
2023-02-03T12:32:14.301Z,11.91
2023-02-03T12:39:38.569Z,12.04
2023-02-03T12:46:45.059Z,12.11
2023-02-03T12:53:49.029Z,11.98
2023-02-03T13:00:54.502Z,10.45
2023-02-03T13:08:06.458Z,8.94
2023-02-03T13:15:45.834Z,9.72
2023-02-03T13:22:47.554Z,9.94
2023-02-03T13:30:21.242Z,10.05
2023-02-03T13:37:29.710Z,9.63
2023-02-03T13:44:31.260Z,10.22
2023-02-03T13:51:37.602Z,10.32
2023-02-03T13:58:39.465Z,10.41
2023-02-03T14:05:52.069Z,10.40
2023-02-03T14:12:53.516Z,10.28
2023-02-03T14:19:55.684Z,10.50
2023-02-03T14:26:57.407Z,10.60
2023-02-03T14:34:09.339Z,10.76
2023-02-03T14:41:10.909Z,10.98
2023-02-03T14:48:37.732Z,11.06
2023-02-03T14:56:06.678Z,11.11
2023-02-03T15:03:11.436Z,11.15
2023-02-03T15:10:17.059Z,11.08
2023-02-03T15:17:28.085Z,10.83
2023-02-03T15:24:35.724Z,10.87
2023-02-03T15:31:42.887Z,10.81
2023-02-03T15:38:55.720Z,10.87
2023-02-03T15:46:27.864Z,10.83
2023-02-03T15:53:45.316Z,10.69
2023-02-03T16:00:50.565Z,10.64
2023-02-03T16:07:52.364Z,10.75
2023-02-03T16:14:54.743Z,10.43
2023-02-03T16:21:57.131Z,10.54
2023-02-03T16:29:23.323Z,10.39
2023-02-03T16:36:43.154Z,10.55
2023-02-03T16:44:03.530Z,10.44
2023-02-03T16:51:07.478Z,10.63
2023-02-03T16:58:11.226Z,10.53
2023-02-03T17:05:12.791Z,10.52
2023-02-03T17:12:14.324Z,10.40
2023-02-03T17:19:15.920Z,10.24
2023-02-03T17:26:17.607Z,10.16
2023-02-03T17:33:19.123Z,10.61
2023-02-03T17:54:59.258Z,10.57
2023-02-03T18:02:01.163Z,10.48
2023-02-03T18:09:06.828Z,10.56
2023-02-03T18:16:09.977Z,10.40
2023-02-03T18:23:11.578Z,10.50
2023-02-03T18:30:14.907Z,10.51
2023-02-03T18:37:16.499Z,10.67
2023-02-03T18:44:18.237Z,10.42
2023-02-03T18:51:20.788Z,10.45
2023-02-03T18:58:22.433Z,10.51
2023-02-03T19:05:23.969Z,10.42
2023-02-03T19:12:26.293Z,10.65
2023-02-03T19:19:27.818Z,10.68
2023-02-03T19:26:29.417Z,10.59
2023-02-03T19:33:30.983Z,10.44
2023-02-03T19:40:32.528Z,10.72
2023-02-03T19:47:34.180Z,10.44
2023-02-03T19:54:36.043Z,10.47
2023-02-03T20:01:37.622Z,10.47
2023-02-03T20:08:39.209Z,10.47
2023-02-03T20:15:41.024Z,10.32
2023-02-03T20:22:42.598Z,10.22
2023-02-03T20:29:44.453Z,10.33
2023-02-03T20:36:45.993Z,10.21
2023-02-03T20:43:47.496Z,10.26
2023-02-03T20:50:50.140Z,10.14
2023-02-03T20:57:54.654Z,10.15
2023-02-03T21:04:59.075Z,9.95
2023-02-03T21:12:00.676Z,9.80
2023-02-03T21:19:03.251Z,9.11
2023-02-03T21:26:25.298Z,8.95
2023-02-03T21:33:29.948Z,8.89
2023-02-03T21:40:33.331Z,8.37
2023-02-03T21:47:34.957Z,8.36
2023-02-03T21:54:41.578Z,8.02
2023-02-03T22:01:43.126Z,8.30
2023-02-03T22:08:48.950Z,8.04
2023-02-03T22:15:50.499Z,8.23
2023-02-03T22:22:52.077Z,8.21
2023-02-03T22:29:56.306Z,8.06
2023-02-03T22:36:57.819Z,7.86
2023-02-03T22:43:59.412Z,7.68
2023-02-03T22:51:01.363Z,7.96
2023-02-03T22:58:03.173Z,7.93
2023-02-03T23:05:05.764Z,8.07
2023-02-03T23:12:07.323Z,8.19
2023-02-03T23:19:08.825Z,7.98
2023-02-03T23:26:10.433Z,8.01
2023-02-03T23:33:11.989Z,7.82
2023-02-03T23:40:13.591Z,7.87
2023-02-03T23:47:15.186Z,7.79
2023-02-03T23:54:16.771Z,7.97
